Time;durP1;ratioP1;P1;durP2;ratioP2;P2;SDS_P1;SDS_P2;PMS_P1;PMS_P2;Temp;Humidity;BMP_temperature;BMP_pressure;BME280_temperature;BME280_humidity;BME280_pressure;Samples;Min_cycle;Max_cycle;Signal;HPM_P1;HPM_P2
2021/11/18 00:03:56;;;;;;;0.20;0.10;;;11.50;99.90;;;;;;20877239;28;20323;-72
2021/11/18 00:14:02;;;;;;;0.20;0.10;;;11.30;99.90;;;;;;20786704;28;20199;-71
2021/11/18 00:24:09;;;;;;;0.20;0.10;;;11.20;99.90;;;;;;20753383;28;20305;-72
2021/11/18 00:34:14;;;;;;;0.20;0.10;;;11.00;99.90;;;;;;20776511;28;20225;-72
2021/11/18 00:44:19;;;;;;;0.20;0.10;;;10.90;99.90;;;;;;20833100;28;20620;-73
2021/11/18 00:54:22;;;;;;;0.20;0.10;;;11.00;99.90;;;;;;20831779;28;20441;-72
2021/11/18 01:04:29;;;;;;;0.20;0.10;;;11.00;99.90;;;;;;20801263;23;20236;-74
2021/11/18 01:14:34;;;;;;;0.20;0.10;;;11.10;99.90;;;;;;20747767;28;20275;-75
2021/11/18 01:24:45;;;;;;;0.20;0.10;;;11.00;99.90;;;;;;20729032;28;20246;-73
2021/11/18 01:34:49;;;;;;;0.20;0.10;;;10.80;99.90;;;;;;20746710;28;20611;-74
2021/11/18 01:44:55;;;;;;;2.67;1.73;;;10.70;99.90;;;;;;20718792;28;20237;-71
2021/11/18 01:54:59;;;;;;;0.20;0.10;;;10.60;99.90;;;;;;20696244;28;20206;-71
2021/11/18 02:05:14;;;;;;;0.20;0.10;;;10.40;99.90;;;;;;20720598;23;20250;-73
2021/11/18 02:15:23;;;;;;;0.20;0.10;;;10.30;99.90;;;;;;20700190;28;20214;-74
2021/11/18 02:25:31;;;;;;;0.20;0.10;;;10.20;99.90;;;;;;20742621;28;20214;-73
2021/11/18 02:35:38;;;;;;;0.20;0.10;;;10.00;99.90;;;;;;20723024;28;20226;-72
2021/11/18 02:45:46;;;;;;;0.20;0.10;;;10.20;99.90;;;;;;20740914;28;20199;-73
2021/11/18 02:55:51;;;;;;;0.20;0.10;;;10.10;99.90;;;;;;20740395;28;20224;-72
2021/11/18 03:05:58;;;;;;;0.20;0.10;;;10.00;99.90;;;;;;20670529;23;20246;-68
2021/11/18 03:16:04;;;;;;;0.20;0.10;;;9.90;99.90;;;;;;20625974;28;20547;-69
2021/11/18 03:26:10;;;;;;;0.20;0.07;;;10.00;99.90;;;;;;20647037;28;20203;-68
2021/11/18 03:36:15;;;;;;;0.20;0.10;;;9.60;99.90;;;;;;20647277;28;20704;-69
2021/11/18 03:46:22;;;;;;;0.20;0.10;;;9.60;99.90;;;;;;20656132;28;20210;-68
2021/11/18 03:56:29;;;;;;;0.20;0.10;;;9.70;99.90;;;;;;20650083;28;20233;-68
2021/11/18 04:06:34;;;;;;;0.20;0.10;;;9.60;99.90;;;;;;20616623;28;20307;-69
2021/11/18 04:16:38;;;;;;;0.20;0.10;;;9.70;99.90;;;;;;20618673;28;20657;-69
2021/11/18 04:26:45;;;;;;;14.13;3.20;;;9.50;99.90;;;;;;20628771;28;20295;-68
2021/11/18 04:36:51;;;;;;;0.20;0.10;;;9.50;99.90;;;;;;20629057;28;20270;-68
2021/11/18 04:46:57;;;;;;;0.20;0.10;;;9.40;99.90;;;;;;20638965;28;20237;-68
2021/11/18 04:57:03;;;;;;;0.20;0.10;;;9.30;99.90;;;;;;20589072;28;20224;-68
2021/11/18 05:07:08;;;;;;;0.20;0.03;;;9.30;99.90;;;;;;20641667;28;20227;-68
2021/11/18 05:17:11;;;;;;;0.20;0.10;;;9.20;99.90;;;;;;20666048;28;20223;-69
2021/11/18 05:27:16;;;;;;;0.20;0.10;;;9.30;99.90;;;;;;20665879;28;20192;-68
2021/11/18 05:37:21;;;;;;;0.20;0.10;;;9.20;99.90;;;;;;20664708;28;20231;-70
2021/11/18 05:47:26;;;;;;;0.20;0.10;;;9.20;99.90;;;;;;20663770;28;20582;-68
2021/11/18 05:57:30;;;;;;;0.20;0.10;;;9.40;99.90;;;;;;20662093;28;20239;-69
2021/11/18 06:07:35;;;;;;;0.23;0.23;;;9.40;99.90;;;;;;20643585;28;20228;-69
2021/11/18 06:17:39;;;;;;;0.20;0.10;;;9.40;99.90;;;;;;20592310;28;20720;-67
2021/11/18 06:27:45;;;;;;;0.20;0.10;;;9.40;99.90;;;;;;20586401;28;20203;-67
2021/11/18 06:37:50;;;;;;;0.20;0.10;;;9.40;99.90;;;;;;20592207;28;20227;-68
2021/11/18 06:47:55;;;;;;;0.20;0.10;;;9.40;99.90;;;;;;20647101;28;20628;-67
2021/11/18 06:57:59;;;;;;;0.20;0.10;;;9.30;99.90;;;;;;20575863;28;20319;-69
2021/11/18 07:08:05;;;;;;;0.20;0.10;;;9.40;99.90;;;;;;20626268;28;20238;-68
2021/11/18 07:18:09;;;;;;;0.20;0.10;;;9.50;99.90;;;;;;20608781;28;20279;-68
2021/11/18 07:28:15;;;;;;;0.20;0.10;;;9.60;99.90;;;;;;20626563;28;20278;-67
2021/11/18 07:38:19;;;;;;;0.20;0.20;;;9.70;99.90;;;;;;20615662;28;20233;-69
2021/11/18 07:48:24;;;;;;;0.20;0.10;;;9.90;99.90;;;;;;20608504;28;20558;-65
2021/11/18 07:58:27;;;;;;;0.20;0.10;;;10.20;99.90;;;;;;20648835;28;20231;-72
2021/11/18 08:08:32;;;;;;;0.20;0.10;;;10.60;99.90;;;;;;20633162;28;20318;-69
2021/11/18 08:18:36;;;;;;;0.20;0.10;;;10.80;99.90;;;;;;20606649;28;20226;-67
2021/11/18 08:28:42;;;;;;;0.20;0.10;;;11.10;99.90;;;;;;20651216;28;20195;-68
2021/11/18 08:38:46;;;;;;;0.20;0.10;;;11.50;99.90;;;;;;20648107;28;20255;-69
2021/11/18 08:48:58;;;;;;;0.20;0.10;;;11.90;99.90;;;;;;20665930;28;20314;-67
2021/11/18 08:59:04;;;;;;;0.20;0.10;;;12.30;99.90;;;;;;20664936;28;20230;-67
2021/11/18 09:09:11;;;;;;;0.20;0.10;;;12.70;99.90;;;;;;20662491;28;20277;-67
2021/11/18 09:19:19;;;;;;;0.20;0.10;;;13.10;99.90;;;;;;20662965;28;20224;-67
2021/11/18 09:29:26;;;;;;;0.20;0.10;;;13.20;99.90;;;;;;20662809;28;20275;-67
2021/11/18 09:39:30;;;;;;;18.67;15.40;;;13.60;99.90;;;;;;20661927;28;20309;-68
2021/11/18 09:50:00;;;;;;;0.20;0.03;;;13.90;99.90;;;;;;20643576;28;20192;-68
2021/11/18 10:00:10;;;;;;;0.20;0.10;;;14.30;99.90;;;;;;20648197;28;20326;-67
2021/11/18 10:10:22;;;;;;;0.20;0.07;;;15.00;99.90;;;;;;20641124;28;20217;-68
2021/11/18 10:20:28;;;;;;;0.20;0.03;;;15.30;99.90;;;;;;20656649;28;20754;-67
2021/11/18 10:30:42;;;;;;;0.20;0.10;;;16.00;99.90;;;;;;20658706;28;20290;-69
2021/11/18 10:40:59;;;;;;;0.20;0.10;;;16.90;99.90;;;;;;20639780;28;20223;-68
2021/11/18 10:51:08;;;;;;;0.20;0.10;;;17.40;99.90;;;;;;20655508;28;20226;-69
2021/11/18 11:01:16;;;;;;;0.20;0.10;;;17.60;99.90;;;;;;20655299;28;20233;-67
2021/11/18 11:11:35;;;;;;;0.20;0.10;;;17.90;99.90;;;;;;20638032;28;20239;-68
2021/11/18 11:21:49;;;;;;;0.20;0.00;;;18.10;99.90;;;;;;20654325;28;20341;-69
2021/11/18 11:32:04;;;;;;;0.20;0.00;;;18.50;99.90;;;;;;20655209;28;20739;-68
2021/11/18 11:42:45;;;;;;;0.20;0.10;;;18.40;99.90;;;;;;20647779;28;20226;-70
2021/11/18 11:53:02;;;;;;;0.20;0.10;;;18.60;99.90;;;;;;20644424;28;20586;-69
2021/11/18 12:03:17;;;;;;;0.20;0.00;;;19.30;99.90;;;;;;20634997;28;20351;-69
2021/11/18 12:13:39;;;;;;;0.20;0.10;;;19.60;99.90;;;;;;20629530;28;20262;-69
2021/11/18 12:24:06;;;;;;;0.20;0.10;;;19.70;99.90;;;;;;20587739;28;20624;-68
2021/11/18 12:34:13;;;;;;;0.20;0.10;;;20.00;99.90;;;;;;20567590;28;20244;-68
2021/11/18 12:44:31;;;;;;;0.20;0.00;;;19.70;99.90;;;;;;20585392;28;20674;-69
2021/11/18 12:54:39;;;;;;;0.20;0.10;;;20.20;99.90;;;;;;20601246;28;20205;-69
2021/11/18 13:04:51;;;;;;;3.10;2.40;;;20.20;99.90;;;;;;20665152;28;20704;-67
2021/11/18 13:15:07;;;;;;;0.20;0.03;;;19.20;99.90;;;;;;20664792;28;20223;-69
2021/11/18 13:25:17;;;;;;;0.20;0.10;;;19.00;99.90;;;;;;20659633;28;20689;-69
2021/11/18 13:35:26;;;;;;;0.47;0.47;;;19.30;99.90;;;;;;20653514;28;20282;-73
2021/11/18 13:45:34;;;;;;;0.20;0.10;;;19.80;99.90;;;;;;20659680;28;20254;-71
2021/11/18 13:55:49;;;;;;;0.20;0.10;;;20.60;99.90;;;;;;20661659;28;20183;-69
2021/11/18 14:05:56;;;;;;;0.20;0.10;;;20.70;99.90;;;;;;20657375;28;20281;-69
2021/11/18 14:16:05;;;;;;;0.20;0.10;;;21.40;99.90;;;;;;20658462;28;20192;-66
2021/11/18 14:26:39;;;;;;;0.20;0.03;;;21.30;99.90;;;;;;20659424;28;20262;-69
2021/11/18 14:36:48;;;;;;;0.20;0.10;;;20.40;99.90;;;;;;20655602;28;20295;-69
2021/11/18 14:47:00;;;;;;;0.20;0.10;;;18.90;99.90;;;;;;20653263;28;20747;-68
2021/11/18 15:07:32;;;;;;;0.20;0.00;;;18.80;99.90;;;;;;21170926;27;1424936;-68
2021/11/18 15:17:37;;;;;;;0.20;0.00;;;19.80;99.90;;;;;;21133773;28;20612;-68
2021/11/18 15:27:46;;;;;;;0.20;0.10;;;18.20;99.90;;;;;;21061784;28;20196;-69
2021/11/18 15:37:52;;;;;;;0.20;0.00;;;17.20;99.90;;;;;;21047844;28;20218;-67
2021/11/18 15:47:58;;;;;;;0.20;0.10;;;16.10;99.90;;;;;;21026159;28;20287;-68
2021/11/18 15:58:02;;;;;;;0.20;0.10;;;16.00;99.90;;;;;;21044633;28;20371;-69
2021/11/18 16:08:08;;;;;;;0.20;0.03;;;15.60;99.90;;;;;;21045024;28;20193;-67
2021/11/18 16:18:14;;;;;;;0.20;0.10;;;15.00;99.90;;;;;;21073793;28;20304;-65
2021/11/18 16:28:20;;;;;;;0.20;0.10;;;14.80;99.90;;;;;;21071464;28;20208;-67
2021/11/18 16:38:28;;;;;;;0.20;0.10;;;14.30;99.90;;;;;;21068620;28;20557;-67
2021/11/18 16:48:33;;;;;;;0.20;0.10;;;13.70;99.90;;;;;;21070624;28;20283;-67
2021/11/18 16:58:38;;;;;;;0.20;0.10;;;13.30;99.90;;;;;;21005225;28;20236;-69
2021/11/18 17:08:45;;;;;;;0.20;0.10;;;12.90;99.90;;;;;;20972313;28;20201;-66
2021/11/18 17:18:51;;;;;;;0.20;0.03;;;12.40;99.90;;;;;;21028143;28;20574;-67
2021/11/18 17:28:59;;;;;;;0.20;0.10;;;12.20;99.90;;;;;;21011938;28;20196;-67
2021/11/18 17:39:19;;;;;;;0.20;0.10;;;11.90;99.90;;;;;;21062799;28;20314;-67
2021/11/18 17:49:28;;;;;;;0.20;0.10;;;12.00;99.90;;;;;;21067077;28;20696;-66
2021/11/18 17:59:32;;;;;;;0.20;0.10;;;11.90;99.90;;;;;;21068286;28;20238;-68
2021/11/18 18:09:40;;;;;;;0.20;0.10;;;11.90;99.90;;;;;;21057884;28;20280;-68
2021/11/18 18:19:45;;;;;;;0.20;0.10;;;11.70;99.90;;;;;;20982752;28;20224;-68
2021/11/18 18:29:51;;;;;;;0.20;0.10;;;11.60;99.90;;;;;;21021477;28;20287;-70
2021/11/18 18:39:56;;;;;;;0.20;0.10;;;11.50;99.90;;;;;;20987517;28;20219;-69
2021/11/18 18:50:01;;;;;;;0.20;0.10;;;11.20;99.90;;;;;;21041421;28;20549;-69
2021/11/18 19:00:12;;;;;;;0.20;0.10;;;11.30;99.90;;;;;;21010176;28;20322;-70
2021/11/18 19:10:20;;;;;;;0.20;0.10;;;11.20;99.90;;;;;;20995378;28;20610;-69
2021/11/18 19:20:25;;;;;;;0.20;0.10;;;11.10;99.90;;;;;;20983541;28;20576;-68
2021/11/18 19:40:56;;;;;;;0.20;0.10;;;11.00;99.90;;;;;;21060805;28;20228;-68
2021/11/18 19:51:05;;;;;;;0.20;0.03;;;11.00;99.90;;;;;;21012210;28;20279;-68
2021/11/18 20:01:11;;;;;;;0.20;0.10;;;11.00;99.90;;;;;;21051688;28;20281;-67
2021/11/18 20:11:17;;;;;;;0.20;0.10;;;11.00;99.90;;;;;;21039639;28;20257;-70
2021/11/18 20:21:24;;;;;;;0.43;0.43;;;11.10;99.90;;;;;;21058335;28;20315;-68
2021/11/18 20:31:32;;;;;;;0.20;0.10;;;11.00;99.90;;;;;;21069926;28;20193;-68
2021/11/18 20:41:36;;;;;;;0.20;0.10;;;10.80;99.90;;;;;;21057218;28;20677;-68
2021/11/18 20:51:45;;;;;;;0.20;0.10;;;11.00;99.90;;;;;;21053805;28;20192;-68
2021/11/18 21:01:51;;;;;;;0.20;0.10;;;11.00;99.90;;;;;;21023230;28;20235;-67
2021/11/18 21:11:57;;;;;;;4.03;1.97;;;10.90;99.90;;;;;;21013478;28;20235;-68
2021/11/18 21:22:02;;;;;;;0.20;0.10;;;10.80;99.90;;;;;;21009742;28;20262;-68
2021/11/18 21:32:09;;;;;;;0.30;0.30;;;10.50;99.90;;;;;;21016035;28;20196;-68
2021/11/18 21:42:15;;;;;;;0.20;0.10;;;10.70;99.90;;;;;;21072343;28;20310;-69
2021/11/18 21:52:21;;;;;;;0.20;0.10;;;10.70;99.90;;;;;;21071522;28;20279;-69
2021/11/18 22:02:26;;;;;;;0.20;0.10;;;10.60;99.90;;;;;;21049134;28;20312;-68
2021/11/18 22:12:31;;;;;;;0.20;0.10;;;10.60;99.90;;;;;;21013849;28;20610;-69
2021/11/18 22:22:34;;;;;;;0.30;0.30;;;10.80;99.90;;;;;;21025809;28;20303;-69
2021/11/18 22:32:40;;;;;;;0.20;0.10;;;10.90;99.90;;;;;;21003840;28;20312;-68
2021/11/18 22:42:43;;;;;;;0.20;0.10;;;11.10;99.90;;;;;;20985349;28;20255;-69
2021/11/18 22:52:50;;;;;;;0.20;0.20;;;10.90;99.90;;;;;;20984315;28;20197;-69
2021/11/18 23:02:56;;;;;;;0.20;0.10;;;11.10;99.90;;;;;;20984201;28;20259;-67
2021/11/18 23:13:01;;;;;;;0.20;0.10;;;11.10;99.90;;;;;;21021296;28;20691;-67
2021/11/18 23:23:06;;;;;;;0.20;0.10;;;10.90;99.90;;;;;;21073104;28;20227;-67
2021/11/18 23:33:11;;;;;;;0.20;0.10;;;10.90;99.90;;;;;;21067244;28;20275;-67
2021/11/18 23:43:15;;;;;;;0.20;0.10;;;10.70;99.90;;;;;;20998346;28;20252;-67
2021/11/18 23:53:20;;;;;;;0.20;0.10;;;10.80;99.90;;;;;;21007452;28;20200;-67
